Time;durP1;ratioP1;P1;durP2;ratioP2;P2;SDS_P1;SDS_P2;PMS_P1;PMS_P2;Temp;Humidity;BMP_temperature;BMP_pressure;BME280_temperature;BME280_humidity;BME280_pressure;Samples;Min_cycle;Max_cycle;Signal;HPM_P1;HPM_P2
2021/01/20 00:01:42;;;;;;;1.70;1.05;;;10.60;78.60;;;;;;5083695;28;20025;-44
2021/01/20 00:04:08;;;;;;;1.75;1.00;;;10.60;78.60;;;;;;5083385;28;20466;-41
2021/01/20 00:06:34;;;;;;;2.80;1.30;;;10.60;78.60;;;;;;5083308;28;20417;-42
2021/01/20 00:09:00;;;;;;;3.63;1.00;;;10.60;78.50;;;;;;5083433;28;20028;-42
2021/01/20 00:11:29;;;;;;;3.50;1.30;;;10.60;78.50;;;;;;5082421;28;20295;-43
2021/01/20 00:13:56;;;;;;;3.80;1.10;;;10.70;78.50;;;;;;5070715;28;20123;-42
2021/01/20 00:16:22;;;;;;;1.45;1.00;;;10.70;78.50;;;;;;5083248;28;20031;-43
2021/01/20 00:18:48;;;;;;;2.00;1.30;;;10.70;78.40;;;;;;5083400;28;20479;-42
2021/01/20 00:21:14;;;;;;;1.65;1.30;;;10.70;78.40;;;;;;5082169;28;20107;-42
2021/01/20 00:23:41;;;;;;;2.00;0.93;;;10.70;78.30;;;;;;5083511;28;20647;-43
2021/01/20 00:26:07;;;;;;;2.95;1.20;;;10.70;78.30;;;;;;5082340;28;20028;-43
2021/01/20 00:28:33;;;;;;;2.22;1.23;;;10.70;78.20;;;;;;5075487;28;20037;-42
2021/01/20 00:30:59;;;;;;;1.35;1.02;;;10.70;78.30;;;;;;5067673;28;20021;-44
2021/01/20 00:33:26;;;;;;;1.80;0.90;;;10.80;78.30;;;;;;5074069;28;20496;-44
2021/01/20 00:35:52;;;;;;;1.67;1.20;;;10.80;78.30;;;;;;5100444;28;20038;-41
2021/01/20 00:38:19;;;;;;;1.33;1.00;;;10.80;78.20;;;;;;5103336;28;20113;-42
2021/01/20 00:40:45;;;;;;;2.03;1.10;;;10.80;78.30;;;;;;5103265;28;20028;-42
2021/01/20 00:43:11;;;;;;;2.78;1.10;;;10.80;78.20;;;;;;5087348;28;20055;-42
2021/01/20 00:45:40;;;;;;;1.90;1.10;;;10.80;78.20;;;;;;5083449;28;20033;-42
2021/01/20 00:48:10;;;;;;;2.72;1.15;;;10.80;78.20;;;;;;5075823;28;20037;-42
2021/01/20 00:50:36;;;;;;;2.95;1.02;;;10.90;78.20;;;;;;5070967;28;20048;-42
2021/01/20 00:53:03;;;;;;;2.40;1.02;;;10.90;78.20;;;;;;5064680;28;20029;-42
2021/01/20 00:55:29;;;;;;;2.55;1.20;;;10.90;78.10;;;;;;5077120;28;20599;-42
2021/01/20 00:57:55;;;;;;;1.83;0.80;;;10.90;78.10;;;;;;5082595;28;20107;-43
2021/01/20 01:00:22;;;;;;;6.20;1.08;;;10.90;78.10;;;;;;5085307;28;20576;-42
2021/01/20 01:02:49;;;;;;;2.13;1.10;;;10.90;78.10;;;;;;5082969;28;20036;-42
2021/01/20 01:05:15;;;;;;;;;;;10.90;78.10;;;;;;5094208;28;20145;-42
2021/01/20 01:07:41;;;;;;;1.92;0.93;;;10.90;78.10;;;;;;5103183;28;19908;-42
2021/01/20 01:10:08;;;;;;;4.47;1.00;;;10.90;78.10;;;;;;5102336;28;20028;-43
2021/01/20 01:12:34;;;;;;;1.88;1.15;;;11.00;78.10;;;;;;5103446;28;20024;-43
2021/01/20 01:15:00;;;;;;;1.95;0.77;;;11.00;78.00;;;;;;5103089;28;20044;-47
2021/01/20 01:17:27;;;;;;;2.45;1.10;;;11.00;78.00;;;;;;5102711;28;20617;-43
2021/01/20 01:19:53;;;;;;;1.65;1.05;;;11.00;78.00;;;;;;5103268;28;20028;-43
2021/01/20 01:22:19;;;;;;;1.77;1.00;;;11.00;78.00;;;;;;5103019;28;20024;-44
2021/01/20 01:24:45;;;;;;;1.38;0.82;;;11.00;78.00;;;;;;5102948;28;20024;-43
2021/01/20 01:27:11;;;;;;;1.60;0.90;;;11.00;78.00;;;;;;5102881;28;20110;-43
2021/01/20 01:29:37;;;;;;;3.60;1.10;;;11.00;78.00;;;;;;5103018;28;20035;-43
2021/01/20 01:32:06;;;;;;;2.92;1.33;;;11.10;78.00;;;;;;5103040;28;20039;-43
2021/01/20 01:34:33;;;;;;;3.20;0.70;;;11.10;78.00;;;;;;5102590;28;20040;-42
2021/01/20 01:36:59;;;;;;;2.00;1.25;;;11.10;78.00;;;;;;5104673;28;20084;-46
2021/01/20 01:39:26;;;;;;;2.60;1.02;;;11.10;78.00;;;;;;5106604;28;20028;-42
2021/01/20 01:41:52;;;;;;;3.45;1.50;;;11.10;77.90;;;;;;5103994;28;20028;-45
2021/01/20 01:44:18;;;;;;;1.88;1.02;;;11.10;77.90;;;;;;5082725;28;20402;-44
2021/01/20 01:46:45;;;;;;;1.97;1.10;;;11.10;77.90;;;;;;5081818;28;20140;-42
2021/01/20 01:49:11;;;;;;;1.90;1.00;;;11.10;77.90;;;;;;5082507;28;20480;-42
2021/01/20 01:51:38;;;;;;;2.15;1.23;;;11.10;77.90;;;;;;5084182;28;20142;-44
2021/01/20 01:54:04;;;;;;;1.40;0.95;;;11.20;77.90;;;;;;5079421;28;20127;-42
2021/01/20 01:56:30;;;;;;;2.22;0.90;;;11.20;77.90;;;;;;5081004;28;20092;-42
2021/01/20 01:58:57;;;;;;;1.35;0.95;;;11.20;77.90;;;;;;5078171;28;20059;-43
2021/01/20 02:01:25;;;;;;;1.67;0.93;;;11.20;77.90;;;;;;5078622;28;20029;-42
2021/01/20 02:03:52;;;;;;;2.42;1.10;;;11.20;77.90;;;;;;5076921;28;20050;-43
2021/01/20 02:06:21;;;;;;;6.93;1.13;;;11.20;77.80;;;;;;5086436;28;20024;-44
2021/01/20 02:08:47;;;;;;;2.60;1.02;;;11.20;77.80;;;;;;5082512;28;20083;-43
2021/01/20 02:12:04;;;;;;;2.20;1.10;;;11.20;77.90;;;;;;5087900;28;20029;-42
2021/01/20 02:14:42;;;;;;;3.17;1.08;;;11.20;77.90;;;;;;5071266;28;20048;-44
2021/01/20 02:17:22;;;;;;;2.67;1.13;;;11.30;77.90;;;;;;5084400;28;20050;-44
2021/01/20 02:20:25;;;;;;;2.13;1.27;;;11.30;77.90;;;;;;5084152;28;20588;-43
2021/01/20 02:22:52;;;;;;;2.85;1.40;;;11.30;77.90;;;;;;5085206;28;20036;-42
2021/01/20 02:25:52;;;;;;;2.05;1.17;;;11.30;77.90;;;;;;5100974;28;20028;-43
2021/01/20 02:28:26;;;;;;;3.17;1.05;;;11.30;77.90;;;;;;5085476;28;20115;-43
2021/01/20 02:30:52;;;;;;;2.30;1.25;;;11.40;77.90;;;;;;5084005;28;20021;-43
2021/01/20 02:33:22;;;;;;;2.40;1.25;;;11.40;77.90;;;;;;5083824;28;20043;-42
2021/01/20 02:35:53;;;;;;;1.50;1.00;;;11.40;77.90;;;;;;5083817;28;20111;-43
2021/01/20 02:38:20;;;;;;;1.95;1.30;;;11.40;77.90;;;;;;5084111;28;20483;-42
2021/01/20 02:40:46;;;;;;;1.17;1.00;;;11.40;77.90;;;;;;5083800;28;20525;-42
2021/01/20 02:43:12;;;;;;;2.08;0.88;;;11.40;77.90;;;;;;5069121;28;20096;-44
2021/01/20 02:45:38;;;;;;;1.13;1.00;;;11.40;77.90;;;;;;5070556;28;20029;-43
2021/01/20 02:48:05;;;;;;;1.10;0.90;;;11.40;77.90;;;;;;5083990;28;20032;-44
2021/01/20 02:50:31;;;;;;;1.63;1.00;;;11.40;77.90;;;;;;5076021;28;20091;-42
2021/01/20 02:53:06;;;;;;;2.72;1.10;;;11.40;77.90;;;;;;5077700;28;20032;-42
2021/01/20 02:55:32;;;;;;;1.73;1.00;;;11.40;77.80;;;;;;5065631;28;20106;-41
2021/01/20 02:58:08;;;;;;;1.67;1.20;;;11.40;77.90;;;;;;5086751;28;20053;-42
2021/01/20 03:00:34;;;;;;;1.45;0.98;;;11.50;77.90;;;;;;5105114;28;20032;-42
2021/01/20 03:03:03;;;;;;;1.27;1.10;;;11.50;77.90;;;;;;5093137;28;20098;-43
2021/01/20 03:05:29;;;;;;;1.48;1.00;;;11.50;77.90;;;;;;5082900;28;20083;-42
2021/01/20 03:07:56;;;;;;;2.65;1.33;;;11.50;77.90;;;;;;5083031;28;20029;-43
2021/01/20 03:10:23;;;;;;;3.05;0.90;;;11.50;77.90;;;;;;5100549;28;20027;-44
2021/01/20 03:12:49;;;;;;;1.40;1.00;;;11.50;77.90;;;;;;5084308;28;20036;-43
2021/01/20 03:15:22;;;;;;;2.58;1.27;;;11.50;77.90;;;;;;5080420;28;20066;-42
2021/01/20 03:17:49;;;;;;;2.30;1.10;;;11.60;78.00;;;;;;5074598;28;20050;-45
2021/01/20 03:20:15;;;;;;;1.83;1.17;;;11.60;78.00;;;;;;5084194;28;20123;-42
2021/01/20 03:22:42;;;;;;;1.88;1.20;;;11.60;77.90;;;;;;5084707;28;20332;-43
2021/01/20 03:25:09;;;;;;;1.80;0.95;;;11.50;77.90;;;;;;5084419;28;20036;-43
2021/01/20 03:27:35;;;;;;;4.13;1.10;;;11.60;78.70;;;;;;5084443;28;20026;-44
2021/01/20 03:30:01;;;;;;;1.70;1.20;;;11.60;77.90;;;;;;5083862;28;20032;-42
2021/01/20 03:32:27;;;;;;;2.55;0.90;;;11.60;78.00;;;;;;5073182;28;20366;-42
2021/01/20 03:34:54;;;;;;;2.33;0.98;;;11.60;77.90;;;;;;5063816;28;20041;-44
2021/01/20 03:37:20;;;;;;;3.58;1.00;;;11.60;78.00;;;;;;5070573;28;20052;-43
2021/01/20 03:39:48;;;;;;;1.25;1.02;;;11.60;77.90;;;;;;5104254;28;20030;-42
2021/01/20 03:42:14;;;;;;;1.42;1.00;;;11.60;78.00;;;;;;5095400;28;20028;-42
2021/01/20 03:44:40;;;;;;;1.75;1.00;;;11.70;78.00;;;;;;5085357;28;20040;-43
2021/01/20 03:47:06;;;;;;;2.00;1.08;;;11.70;77.90;;;;;;5084133;28;20036;-41
2021/01/20 03:49:32;;;;;;;1.30;1.10;;;11.70;78.10;;;;;;5083928;28;20024;-42
2021/01/20 03:51:58;;;;;;;1.95;0.98;;;11.70;78.00;;;;;;5083363;28;20040;-44
2021/01/20 03:54:25;;;;;;;1.33;1.10;;;11.70;78.00;;;;;;5083264;28;20057;-42
2021/01/20 03:56:51;;;;;;;2.95;1.10;;;11.70;78.00;;;;;;5083573;28;20071;-43
2021/01/20 03:59:17;;;;;;;1.95;1.10;;;11.70;78.00;;;;;;5080614;28;20036;-43
2021/01/20 04:01:43;;;;;;;2.78;1.00;;;11.70;78.00;;;;;;5074615;28;20024;-44
2021/01/20 04:04:09;;;;;;;1.42;0.90;;;11.70;78.00;;;;;;5063585;28;20092;-42
2021/01/20 04:06:36;;;;;;;1.48;0.90;;;11.70;77.90;;;;;;5063582;28;20032;-42
2021/01/20 04:09:02;;;;;;;1.55;1.10;;;11.80;78.00;;;;;;5063572;28;20041;-43
2021/01/20 04:11:28;;;;;;;2.77;0.93;;;11.80;78.00;;;;;;5087922;28;20046;-43
2021/01/20 04:13:54;;;;;;;1.25;1.05;;;11.80;78.00;;;;;;5103749;28;20520;-43
2021/01/20 04:16:21;;;;;;;2.85;1.23;;;11.80;78.00;;;;;;5103852;28;20056;-44
2021/01/20 04:18:47;;;;;;;1.92;1.20;;;11.80;78.00;;;;;;5103793;28;20032;-45
2021/01/20 04:21:13;;;;;;;2.47;1.10;;;11.80;78.00;;;;;;5103179;28;20046;-42
2021/01/20 04:23:39;;;;;;;1.75;1.08;;;11.80;78.00;;;;;;5086356;28;20032;-43
2021/01/20 04:26:06;;;;;;;2.40;1.25;;;11.80;78.00;;;;;;5068508;28;20025;-42
2021/01/20 04:28:33;;;;;;;3.25;1.08;;;11.80;78.00;;;;;;5063150;28;20029;-43
2021/01/20 04:30:59;;;;;;;1.73;0.98;;;11.80;78.00;;;;;;5063159;28;20037;-43
2021/01/20 04:33:26;;;;;;;2.15;1.05;;;11.90;78.10;;;;;;5063165;28;20088;-42
2021/01/20 04:35:52;;;;;;;2.25;1.20;;;11.90;78.10;;;;;;5063290;28;20074;-43
2021/01/20 04:38:19;;;;;;;4.03;1.57;;;11.90;78.10;;;;;;5077635;28;20017;-44
2021/01/20 04:40:45;;;;;;;2.00;1.10;;;11.90;78.10;;;;;;5083392;28;20292;-43
2021/01/20 04:43:11;;;;;;;1.30;1.05;;;11.90;78.10;;;;;;5082993;28;20028;-43
2021/01/20 04:45:37;;;;;;;2.08;1.23;;;11.90;78.10;;;;;;5083140;28;20020;-43
2021/01/20 04:48:04;;;;;;;1.60;1.10;;;11.90;78.00;;;;;;5076507;28;20094;-47
2021/01/20 04:50:31;;;;;;;2.97;1.02;;;11.90;78.00;;;;;;5081368;28;20071;-44
2021/01/20 04:53:00;;;;;;;3.43;1.37;;;11.90;78.00;;;;;;5081254;28;20123;-43
2021/01/20 04:55:26;;;;;;;1.88;1.25;;;11.90;78.10;;;;;;5082700;28;20281;-45
2021/01/20 04:57:53;;;;;;;2.67;1.10;;;11.90;78.10;;;;;;5081531;28;20037;-42
2021/01/20 05:00:19;;;;;;;1.38;1.05;;;11.90;78.00;;;;;;5081159;28;20024;-42
2021/01/20 05:02:46;;;;;;;1.40;1.17;;;12.00;78.10;;;;;;5071613;28;20029;-43
2021/01/20 05:05:12;;;;;;;1.13;1.00;;;12.00;78.10;;;;;;5061724;28;20024;-43
2021/01/20 05:07:38;;;;;;;1.38;1.20;;;12.00;78.10;;;;;;5084442;28;20024;-46
2021/01/20 05:10:05;;;;;;;2.97;1.17;;;12.00;78.20;;;;;;5102444;28;20053;-43
2021/01/20 05:12:35;;;;;;;2.83;1.10;;;12.00;78.10;;;;;;5105273;28;20139;-42
2021/01/20 05:15:03;;;;;;;2.55;1.00;;;12.00;78.10;;;;;;5107067;28;20040;-45
2021/01/20 05:17:30;;;;;;;1.75;1.02;;;12.00;78.10;;;;;;5107200;28;20021;-43
2021/01/20 05:19:56;;;;;;;2.00;1.30;;;12.00;78.00;;;;;;5107136;28;20024;-43
2021/01/20 05:22:22;;;;;;;1.30;1.20;;;12.00;78.10;;;;;;5105494;28;20044;-44
2021/01/20 05:24:59;;;;;;;1.33;1.20;;;12.00;78.00;;;;;;5106832;28;20032;-42
2021/01/20 05:27:31;;;;;;;1.50;1.08;;;12.00;78.10;;;;;;5092139;28;20046;-43
2021/01/20 05:30:01;;;;;;;2.75;1.38;;;12.10;78.10;;;;;;5083200;28;20020;-43
2021/01/20 05:32:27;;;;;;;2.00;1.05;;;12.10;78.10;;;;;;5084899;28;20481;-44
2021/01/20 05:35:02;;;;;;;2.07;1.23;;;12.10;78.10;;;;;;5085832;28;20412;-46
2021/01/20 05:37:28;;;;;;;1.40;1.20;;;12.10;78.10;;;;;;5086120;28;20025;-43
2021/01/20 05:40:08;;;;;;;1.83;1.20;;;12.10;78.10;;;;;;5085877;28;20024;-43
2021/01/20 05:42:44;;;;;;;2.25;1.27;;;12.10;78.10;;;;;;5085252;28;20081;-43
2021/01/20 05:45:11;;;;;;;1.95;1.38;;;12.10;78.10;;;;;;5086348;28;20083;-44
2021/01/20 05:47:37;;;;;;;1.50;1.05;;;12.10;78.10;;;;;;5086331;28;20055;-44
2021/01/20 05:50:07;;;;;;;1.73;1.38;;;12.10;78.20;;;;;;5086120;28;20040;-45
2021/01/20 05:52:33;;;;;;;1.77;1.20;;;12.20;78.20;;;;;;5085668;28;20108;-44
2021/01/20 05:55:11;;;;;;;1.10;0.90;;;12.20;78.20;;;;;;5090799;28;20054;-43
2021/01/20 05:57:37;;;;;;;1.33;0.95;;;12.20;78.20;;;;;;5085845;28;20103;-45
2021/01/20 06:00:16;;;;;;;2.78;1.08;;;12.20;78.10;;;;;;5086072;28;20036;-44
2021/01/20 06:02:42;;;;;;;2.25;1.23;;;12.20;78.20;;;;;;5085793;28;20512;-43
2021/01/20 06:05:10;;;;;;;1.40;1.20;;;12.20;78.10;;;;;;5084615;28;20025;-44
2021/01/20 06:07:37;;;;;;;1.13;0.90;;;12.20;78.20;;;;;;5085999;28;20067;-43
2021/01/20 06:10:05;;;;;;;1.20;1.10;;;12.20;78.20;;;;;;5086320;28;20039;-42
2021/01/20 06:12:31;;;;;;;2.92;1.10;;;12.20;78.30;;;;;;5100112;28;20040;-45
2021/01/20 06:14:58;;;;;;;1.55;1.10;;;12.20;78.10;;;;;;5098626;28;20040;-43
2021/01/20 06:17:34;;;;;;;1.67;1.33;;;12.30;78.20;;;;;;5085685;28;20036;-43
2021/01/20 06:20:03;;;;;;;2.38;1.33;;;12.30;78.20;;;;;;5085362;28;20029;-44
2021/01/20 06:22:30;;;;;;;2.03;1.23;;;12.20;78.10;;;;;;5084269;28;20111;-44
2021/01/20 06:25:04;;;;;;;2.05;1.05;;;12.30;78.20;;;;;;5083927;28;20452;-44
2021/01/20 06:28:12;;;;;;;1.67;1.02;;;12.30;78.20;;;;;;5085586;28;20028;-44
2021/01/20 06:30:41;;;;;;;1.63;1.13;;;12.30;78.20;;;;;;5062749;28;20054;-44
2021/01/20 06:33:10;;;;;;;1.38;1.17;;;12.30;78.10;;;;;;5045967;28;20029;-43
2021/01/20 06:35:38;;;;;;;1.73;1.23;;;12.30;78.20;;;;;;5046326;28;20041;-43
2021/01/20 06:38:04;;;;;;;1.42;1.17;;;12.30;78.10;;;;;;5062261;28;20041;-45
2021/01/20 06:40:33;;;;;;;1.52;1.10;;;12.30;78.10;;;;;;5049832;28;20035;-44
2021/01/20 06:42:59;;;;;;;1.13;0.93;;;12.30;78.40;;;;;;5064581;28;20039;-45
2021/01/20 06:45:26;;;;;;;1.75;1.10;;;12.40;78.20;;;;;;5045599;28;20029;-46
2021/01/20 06:48:02;;;;;;;1.50;1.13;;;12.40;78.20;;;;;;5062663;28;20033;-43
2021/01/20 06:50:53;;;;;;;1.27;1.10;;;12.40;78.20;;;;;;5062372;28;20033;-42
2021/01/20 06:53:19;;;;;;;1.42;0.90;;;12.40;78.10;;;;;;5061948;28;20044;-44
2021/01/20 06:55:45;;;;;;;1.70;1.10;;;12.40;78.10;;;;;;5062221;28;20051;-44
2021/01/20 06:58:24;;;;;;;2.58;1.20;;;12.40;78.10;;;;;;5062077;28;20127;-44
2021/01/20 07:00:59;;;;;;;3.25;1.10;;;12.40;78.20;;;;;;5062985;28;20112;-44
2021/01/20 07:03:54;;;;;;;3.15;1.20;;;12.40;78.20;;;;;;5064715;28;20025;-46
2021/01/20 07:06:41;;;;;;;1.90;1.10;;;12.40;78.20;;;;;;5064601;28;20024;-46
2021/01/20 07:09:11;;;;;;;1.85;1.30;;;12.40;78.20;;;;;;5064415;28;20159;-45
2021/01/20 07:11:59;;;;;;;2.70;1.52;;;12.40;78.10;;;;;;5084683;28;20050;-43
2021/01/20 07:14:28;;;;;;;1.50;1.20;;;12.50;78.30;;;;;;5060726;28;20049;-44
2021/01/20 07:16:58;;;;;;;1.40;1.20;;;12.50;78.30;;;;;;5063104;28;20017;-47
2021/01/20 07:19:27;;;;;;;1.65;1.30;;;12.50;78.20;;;;;;5079507;28;20020;-43
2021/01/20 07:21:54;;;;;;;5.47;1.20;;;12.50;78.20;;;;;;5064621;28;20142;-42
2021/01/20 07:24:20;;;;;;;1.63;1.25;;;12.50;78.20;;;;;;5064232;28;20029;-47
2021/01/20 07:26:47;;;;;;;1.38;1.08;;;12.50;78.20;;;;;;5064481;28;20032;-42
2021/01/20 07:29:21;;;;;;;1.77;1.50;;;12.50;78.20;;;;;;5068603;28;20489;-44
2021/01/20 07:31:48;;;;;;;2.00;1.30;;;12.50;78.30;;;;;;5084286;28;20127;-44
2021/01/20 07:34:15;;;;;;;1.70;1.40;;;12.50;78.20;;;;;;5083754;28;20104;-44
2021/01/20 07:36:42;;;;;;;3.50;1.40;;;12.60;78.30;;;;;;5083965;28;20033;-44
2021/01/20 07:39:21;;;;;;;;;;;12.60;78.30;;;;;;5084293;28;20032;-43
2021/01/20 07:41:57;;;;;;;3.10;1.35;;;12.60;78.30;;;;;;5098186;28;19908;-43
2021/01/20 07:44:24;;;;;;;5.25;1.60;;;12.60;78.30;;;;;;5104384;28;20043;-45
2021/01/20 07:47:16;;;;;;;4.00;1.30;;;12.60;78.30;;;;;;5094200;28;20028;-42
2021/01/20 07:49:53;;;;;;;2.20;1.30;;;12.60;78.20;;;;;;5101205;28;20028;-43
2021/01/20 07:52:19;;;;;;;1.45;1.20;;;12.60;78.30;;;;;;5085443;28;20033;-42
2021/01/20 07:54:48;;;;;;;3.22;1.45;;;12.60;78.20;;;;;;5080644;28;20685;-43
2021/01/20 07:57:18;;;;;;;2.22;1.20;;;12.60;78.30;;;;;;5077365;28;20117;-43
2021/01/20 07:59:44;;;;;;;1.95;1.50;;;12.60;78.20;;;;;;5068840;28;20024;-44
2021/01/20 08:02:16;;;;;;;2.17;1.10;;;12.60;78.20;;;;;;5091373;28;20074;-43
2021/01/20 08:04:42;;;;;;;2.13;1.20;;;12.60;78.30;;;;;;5103726;28;20098;-45
2021/01/20 08:07:10;;;;;;;1.52;1.10;;;12.60;78.20;;;;;;5103918;28;20393;-44
2021/01/20 08:09:43;;;;;;;2.17;1.50;;;12.60;78.20;;;;;;5102234;28;20547;-44
2021/01/20 08:12:10;;;;;;;3.90;1.60;;;12.70;78.30;;;;;;5093778;28;20068;-43
2021/01/20 08:14:37;;;;;;;1.92;1.30;;;12.70;78.20;;;;;;5079051;28;20036;-44
2021/01/20 08:17:03;;;;;;;;;;;12.70;78.20;;;;;;5082212;28;21966;-43
2021/01/20 08:19:34;;;;;;;2.25;1.30;;;12.70;78.20;;;;;;5071856;28;20418;-43
2021/01/20 08:22:03;;;;;;;1.83;1.48;;;12.70;78.20;;;;;;5075393;28;20031;-44
2021/01/20 08:24:30;;;;;;;1.92;1.40;;;12.70;78.20;;;;;;5077226;28;20051;-44
2021/01/20 08:26:57;;;;;;;3.33;1.23;;;12.70;78.20;;;;;;5077021;28;20029;-43
2021/01/20 08:29:23;;;;;;;1.55;1.27;;;12.70;78.20;;;;;;5068388;28;20573;-44
2021/01/20 08:32:09;;;;;;;1.87;1.33;;;12.70;78.20;;;;;;5078115;28;20044;-45
2021/01/20 08:34:37;;;;;;;1.83;1.20;;;12.70;78.20;;;;;;5075399;28;20045;-44
2021/01/20 08:37:04;;;;;;;1.60;1.27;;;12.70;78.20;;;;;;5075136;28;20021;-43
2021/01/20 08:39:40;;;;;;;4.32;1.30;;;12.70;78.20;;;;;;5075751;28;20021;-45
2021/01/20 08:42:21;;;;;;;1.73;1.25;;;12.80;78.30;;;;;;5084035;28;20028;-44
2021/01/20 08:45:07;;;;;;;1.80;1.30;;;12.80;78.30;;;;;;5103465;28;20077;-45
2021/01/20 08:47:34;;;;;;;2.05;1.10;;;12.80;78.30;;;;;;5106625;28;20027;-44
2021/01/20 08:50:01;;;;;;;2.30;1.30;;;12.80;79.00;;;;;;5088716;28;20056;-45
2021/01/20 08:52:40;;;;;;;3.00;1.50;;;12.80;78.30;;;;;;5078240;28;20036;-44
2021/01/20 08:55:07;;;;;;;2.78;1.63;;;12.80;78.30;;;;;;5085871;28;20074;-43
2021/01/20 08:57:33;;;;;;;1.75;1.42;;;12.80;78.30;;;;;;5085515;28;20039;-43
2021/01/20 09:00:00;;;;;;;1.88;1.50;;;12.80;78.30;;;;;;5086764;28;20029;-44
2021/01/20 09:02:26;;;;;;;2.60;1.50;;;12.80;78.30;;;;;;5086553;28;20032;-43
2021/01/20 09:04:52;;;;;;;1.83;1.50;;;12.80;78.30;;;;;;5086946;28;20044;-45
2021/01/20 09:07:19;;;;;;;2.33;1.80;;;12.80;78.30;;;;;;5086855;28;20256;-44
2021/01/20 09:09:45;;;;;;;2.70;1.60;;;12.80;78.30;;;;;;5075543;28;20032;-45
2021/01/20 09:12:14;;;;;;;2.13;1.23;;;12.80;78.30;;;;;;5087393;28;20100;-45
2021/01/20 09:14:40;;;;;;;1.70;1.58;;;12.80;78.40;;;;;;5089190;28;20029;-43
2021/01/20 09:17:06;;;;;;;3.08;1.40;;;12.80;78.30;;;;;;5086624;28;20024;-45
2021/01/20 09:19:33;;;;;;;2.27;1.57;;;12.90;78.40;;;;;;5085120;28;20025;-44
2021/01/20 09:21:59;;;;;;;2.37;1.70;;;12.90;78.40;;;;;;5086691;28;20257;-45
2021/01/20 09:24:25;;;;;;;2.10;1.40;;;12.90;78.40;;;;;;5086581;28;20017;-44
2021/01/20 09:26:51;;;;;;;3.30;1.60;;;12.90;78.40;;;;;;5086580;28;20035;-43
2021/01/20 09:29:18;;;;;;;3.33;1.77;;;12.90;78.40;;;;;;5086344;28;20045;-42
2021/01/20 09:31:44;;;;;;;2.47;1.58;;;12.90;78.40;;;;;;5086443;28;20039;-45
2021/01/20 09:34:10;;;;;;;2.05;1.60;;;12.90;78.30;;;;;;5086337;28;20040;-45
2021/01/20 09:36:37;;;;;;;2.42;1.80;;;12.90;78.40;;;;;;5086221;28;20046;-43
2021/01/20 09:39:03;;;;;;;3.33;1.88;;;12.90;78.40;;;;;;5086191;28;20033;-45
2021/01/20 09:41:30;;;;;;;1.80;1.58;;;12.90;78.40;;;;;;5096927;28;20034;-44
2021/01/20 09:43:56;;;;;;;2.83;2.10;;;12.90;78.30;;;;;;5086437;28;20487;-43
2021/01/20 09:46:22;;;;;;;2.03;1.58;;;12.90;78.40;;;;;;5086149;28;20020;-44
2021/01/20 09:48:48;;;;;;;3.22;1.95;;;12.90;78.30;;;;;;5094629;28;20050;-44
2021/01/20 09:51:15;;;;;;;2.83;2.05;;;12.90;78.40;;;;;;5068151;28;20025;-43
2021/01/20 09:53:41;;;;;;;3.08;2.05;;;12.90;78.30;;;;;;5068901;28;20080;-45
2021/01/20 09:56:07;;;;;;;3.08;2.10;;;12.90;78.40;;;;;;5083066;28;20033;-45
2021/01/20 09:58:45;;;;;;;3.05;1.88;;;12.90;78.40;;;;;;5080767;28;20064;-47
2021/01/20 10:01:11;;;;;;;2.55;2.10;;;13.00;78.40;;;;;;5106045;28;20602;-44
2021/01/20 10:03:38;;;;;;;2.75;1.95;;;13.00;78.40;;;;;;5105109;28;20385;-43
2021/01/20 10:06:04;;;;;;;3.38;1.98;;;13.00;78.40;;;;;;5104759;28;20028;-43
2021/01/20 10:08:31;;;;;;;2.33;1.85;;;13.00;78.50;;;;;;5106144;28;20060;-43
2021/01/20 10:10:57;;;;;;;2.70;2.00;;;13.00;78.40;;;;;;5104627;28;20053;-44
2021/01/20 10:13:24;;;;;;;2.30;1.95;;;13.00;78.50;;;;;;5105945;28;20035;-42
2021/01/20 10:15:50;;;;;;;2.55;1.63;;;13.00;78.40;;;;;;5105806;28;20483;-43
2021/01/20 10:18:16;;;;;;;3.13;1.85;;;13.00;78.40;;;;;;5105820;28;20028;-44
2021/01/20 10:20:44;;;;;;;3.50;1.88;;;13.00;78.40;;;;;;5105503;28;20020;-44
2021/01/20 10:23:10;;;;;;;2.20;1.67;;;13.00;78.40;;;;;;5105720;28;20052;-44
2021/01/20 10:25:36;;;;;;;2.63;1.83;;;13.00;78.40;;;;;;5105775;28;20088;-43
2021/01/20 10:28:03;;;;;;;3.03;2.10;;;13.00;78.50;;;;;;5093908;28;20032;-44
2021/01/20 10:30:29;;;;;;;2.20;1.30;;;13.00;78.40;;;;;;5085238;28;20028;-43
2021/01/20 10:32:55;;;;;;;1.88;1.52;;;13.00;78.50;;;;;;5084171;28;20017;-44
2021/01/20 10:35:23;;;;;;;2.75;1.63;;;13.00;78.40;;;;;;5085172;28;20033;-43
2021/01/20 10:37:49;;;;;;;2.38;1.38;;;13.00;78.50;;;;;;5083870;28;20031;-43
2021/01/20 10:40:15;;;;;;;4.13;1.42;;;13.00;79.20;;;;;;5084969;28;20127;-42
2021/01/20 10:42:42;;;;;;;2.00;1.40;;;13.00;78.50;;;;;;5105555;28;20051;-44
2021/01/20 10:45:08;;;;;;;2.15;1.45;;;13.00;78.40;;;;;;5105559;28;20020;-44
2021/01/20 10:47:35;;;;;;;2.65;1.75;;;13.00;78.50;;;;;;5105382;28;20024;-44
2021/01/20 10:50:03;;;;;;;1.70;1.30;;;13.00;78.50;;;;;;5096018;28;20024;-46
2021/01/20 10:52:29;;;;;;;2.58;1.40;;;13.00;78.40;;;;;;5078817;28;20100;-45
2021/01/20 10:54:56;;;;;;;1.92;1.38;;;13.10;78.50;;;;;;5078181;28;20037;-42
2021/01/20 10:57:22;;;;;;;2.30;1.63;;;13.10;78.60;;;;;;5069024;28;20045;-44
2021/01/20 10:59:48;;;;;;;2.00;1.70;;;13.10;78.50;;;;;;5066091;28;20063;-44
2021/01/20 11:02:14;;;;;;;2.35;1.73;;;13.10;78.50;;;;;;5068917;28;20031;-45
2021/01/20 11:04:40;;;;;;;1.75;1.35;;;13.10;78.50;;;;;;5084709;28;20078;-43
2021/01/20 11:07:07;;;;;;;2.55;1.85;;;13.10;78.50;;;;;;5087295;28;20396;-45
2021/01/20 11:09:33;;;;;;;1.57;1.47;;;13.10;78.50;;;;;;5084050;28;20036;-43
2021/01/20 11:11:59;;;;;;;3.25;1.50;;;13.10;78.50;;;;;;5089502;28;20576;-45
2021/01/20 11:14:26;;;;;;;1.88;1.40;;;13.10;78.50;;;;;;5104819;28;20044;-44
2021/01/20 11:16:58;;;;;;;2.43;1.40;;;13.10;78.60;;;;;;5101162;28;20396;-43
2021/01/20 11:19:24;;;;;;;2.10;1.48;;;13.10;78.50;;;;;;5083041;28;20291;-44
2021/01/20 11:21:51;;;;;;;2.37;1.50;;;13.10;78.50;;;;;;5083998;28;20020;-44
2021/01/20 11:24:22;;;;;;;1.83;1.60;;;13.10;78.50;;;;;;5083815;28;20036;-43
2021/01/20 11:26:48;;;;;;;3.05;1.60;;;13.10;78.50;;;;;;5070879;28;20029;-47
2021/01/20 11:29:14;;;;;;;2.10;1.55;;;13.10;78.50;;;;;;5084161;28;20028;-46
2021/01/20 11:31:41;;;;;;;3.15;1.70;;;13.10;78.50;;;;;;5083881;28;20032;-45
2021/01/20 11:34:07;;;;;;;1.80;1.50;;;13.10;78.60;;;;;;5084049;28;20091;-45
2021/01/20 11:36:33;;;;;;;1.95;1.45;;;13.10;78.60;;;;;;5083840;28;20025;-43
2021/01/20 11:38:59;;;;;;;3.05;1.90;;;13.10;78.60;;;;;;5078209;28;20143;-44
2021/01/20 11:41:25;;;;;;;2.83;2.05;;;13.10;78.60;;;;;;5079201;28;20107;-46
2021/01/20 11:43:51;;;;;;;3.88;1.75;;;13.10;78.60;;;;;;5081874;28;20028;-44
2021/01/20 11:46:21;;;;;;;2.88;1.92;;;13.10;78.60;;;;;;5072757;28;20111;-44
2021/01/20 11:48:48;;;;;;;2.05;1.52;;;13.10;78.60;;;;;;5079133;28;20020;-45
2021/01/20 11:51:14;;;;;;;3.00;1.92;;;13.10;79.30;;;;;;5082485;28;20055;-43
2021/01/20 11:53:40;;;;;;;2.80;1.70;;;13.10;78.60;;;;;;5069510;28;20025;-44
2021/01/20 11:56:07;;;;;;;2.97;1.85;;;13.10;78.60;;;;;;5077536;28;20036;-45
2021/01/20 11:58:33;;;;;;;2.33;1.80;;;13.10;78.60;;;;;;5072886;28;20382;-44
2021/01/20 12:00:59;;;;;;;3.13;2.05;;;13.10;78.60;;;;;;5078440;28;20059;-45
2021/01/20 12:03:25;;;;;;;2.40;1.90;;;13.10;78.60;;;;;;5075460;28;20112;-43
2021/01/20 12:05:52;;;;;;;1.90;1.70;;;13.10;78.60;;;;;;5074445;28;20024;-44
2021/01/20 12:08:19;;;;;;;3.03;1.90;;;13.10;78.60;;;;;;5074622;28;20067;-45
2021/01/20 12:10:46;;;;;;;2.17;1.92;;;13.10;78.60;;;;;;5078899;28;20119;-44
2021/01/20 12:13:12;;;;;;;2.80;1.85;;;13.10;78.70;;;;;;5063938;28;20108;-44
2021/01/20 12:15:38;;;;;;;2.20;2.00;;;13.10;78.60;;;;;;5063502;28;20044;-45
2021/01/20 12:18:08;;;;;;;2.50;1.70;;;13.10;78.70;;;;;;5063224;28;20102;-45
2021/01/20 12:20:34;;;;;;;3.28;1.90;;;13.00;78.60;;;;;;5063137;28;20025;-45
2021/01/20 12:23:00;;;;;;;3.60;2.20;;;13.00;78.60;;;;;;5081381;28;20024;-43
2021/01/20 12:25:26;;;;;;;4.38;1.90;;;13.00;78.60;;;;;;5083263;28;20036;-43
2021/01/20 12:27:53;;;;;;;2.80;1.85;;;13.00;78.60;;;;;;5083012;28;20017;-44
2021/01/20 12:30:20;;;;;;;3.33;1.90;;;13.00;78.60;;;;;;5082446;28;20039;-44
2021/01/20 12:32:46;;;;;;;3.53;1.88;;;13.00;78.50;;;;;;5082949;28;20024;-44
2021/01/20 12:35:12;;;;;;;2.25;1.58;;;13.00;78.60;;;;;;5083125;28;20048;-44
2021/01/20 12:37:38;;;;;;;2.38;1.75;;;13.00;78.60;;;;;;5081649;28;20020;-44
2021/01/20 12:40:05;;;;;;;2.25;1.83;;;13.00;78.50;;;;;;5072071;28;20032;-44
2021/01/20 12:42:31;;;;;;;3.35;1.92;;;13.00;78.60;;;;;;5082752;28;20040;-44
2021/01/20 12:44:57;;;;;;;2.47;1.90;;;13.00;78.60;;;;;;5083220;28;20033;-43
2021/01/20 12:47:23;;;;;;;3.55;2.08;;;13.00;78.50;;;;;;5082808;28;20088;-45
2021/01/20 12:49:49;;;;;;;2.97;1.85;;;13.00;78.60;;;;;;5075877;28;20017;-44
2021/01/20 12:52:16;;;;;;;2.70;1.77;;;13.00;78.50;;;;;;5067632;28;20033;-47
2021/01/20 12:54:42;;;;;;;2.72;2.03;;;13.00;78.60;;;;;;5062688;28;20045;-46